createdAt,value
2022-11-10T00:02:05.200Z,94584.78
2022-11-10T00:04:50.189Z,94591.03
2022-11-10T00:07:34.976Z,94585.06
2022-11-10T00:10:20.356Z,94592.38
2022-11-10T00:13:05.246Z,94592.66
2022-11-10T00:16:08.628Z,94595.25
2022-11-10T00:18:53.748Z,94601.53
2022-11-10T00:21:38.586Z,94605.69
2022-11-10T00:24:24.190Z,94595.88
2022-11-10T00:27:09.400Z,94604.13
2022-11-10T00:29:54.397Z,94606.94
2022-11-10T00:32:39.548Z,94607.72
2022-11-10T00:35:24.269Z,94610.84
2022-11-10T00:38:09.337Z,94611.31
2022-11-10T00:40:54.234Z,94618.38
2022-11-10T00:43:39.462Z,94612.09
2022-11-10T00:46:24.496Z,94623.00
2022-11-10T00:49:09.510Z,94618.56
2022-11-10T00:51:54.433Z,94623.78
2022-11-10T00:54:39.380Z,94625.13
2022-11-10T00:57:24.173Z,94636.34
2022-11-10T01:00:09.800Z,94638.94
2022-11-10T01:02:55.769Z,94641.06
2022-11-10T01:05:41.447Z,94642.94
2022-11-10T01:08:26.643Z,94638.53
2022-11-10T01:11:19.205Z,94638.06
2022-11-10T01:14:04.237Z,94633.75
2022-11-10T01:16:49.051Z,94644.88
2022-11-10T01:19:33.974Z,94648.53
2022-11-10T01:22:18.777Z,94653.75
2022-11-10T01:25:04.443Z,94661.56
2022-11-10T01:27:50.951Z,94655.84
2022-11-10T01:30:35.860Z,94654.56
2022-11-10T01:33:21.537Z,94654.28
2022-11-10T01:36:08.005Z,94656.41
2022-11-10T01:38:52.831Z,94654.06
2022-11-10T01:41:37.974Z,94651.28
2022-11-10T01:44:25.136Z,94651.78
2022-11-10T01:47:10.253Z,94681.38
2022-11-10T01:49:55.226Z,94673.56
2022-11-10T01:52:43.888Z,94676.44
2022-11-10T01:55:30.441Z,94661.69
2022-11-10T01:58:17.544Z,94673.56
2022-11-10T02:01:02.685Z,94689.19
2022-11-10T02:03:55.805Z,94695.47
2022-11-10T02:06:43.509Z,94690.81
2022-11-10T02:09:28.420Z,94690.31
2022-11-10T02:12:14.819Z,94692.13
2022-11-10T02:14:59.779Z,94695.50
2022-11-10T02:17:47.416Z,94695.50
2022-11-10T02:20:32.742Z,94712.19
2022-11-10T02:23:30.103Z,94716.34
2022-11-10T02:26:20.734Z,94711.69
2022-11-10T02:29:05.834Z,94710.63
2022-11-10T02:31:50.550Z,94721.03
2022-11-10T02:34:35.415Z,94714.28
2022-11-10T02:37:20.284Z,94721.03
2022-11-10T02:40:05.874Z,94729.38
2022-11-10T02:42:51.113Z,94721.56
2022-11-10T02:45:41.948Z,94733.25
2022-11-10T02:48:26.793Z,94735.84
2022-11-10T02:51:11.585Z,94734.06
2022-11-10T02:53:56.452Z,94737.19
2022-11-10T02:56:41.596Z,94743.94
2022-11-10T02:59:26.469Z,94741.63
2022-11-10T03:02:11.470Z,94746.03
2022-11-10T03:04:56.264Z,94742.16
2022-11-10T03:07:41.140Z,94742.16
2022-11-10T03:10:26.877Z,94758.56
2022-11-10T03:13:11.836Z,94764.31
2022-11-10T03:15:57.106Z,94776.84
2022-11-10T03:18:41.866Z,94783.34
2022-11-10T03:21:27.098Z,94783.34
2022-11-10T03:24:11.911Z,94769.38
2022-11-10T03:26:57.072Z,94795.31
2022-11-10T03:29:41.860Z,94796.09
2022-11-10T03:32:26.827Z,94799.75
2022-11-10T03:35:11.940Z,94805.25
2022-11-10T03:37:56.713Z,94810.69
2022-11-10T03:41:12.087Z,94810.69
2022-11-10T03:43:47.739Z,94801.66
2022-11-10T03:46:32.470Z,94795.69
2022-11-10T03:49:17.415Z,94820.56
2022-11-10T03:52:02.488Z,94825.00
2022-11-10T03:54:47.587Z,94833.88
2022-11-10T03:57:32.249Z,94837.28
2022-11-10T04:00:17.380Z,94822.81
2022-11-10T04:03:02.475Z,94839.91
2022-11-10T04:06:06.003Z,94855.31
2022-11-10T04:09:00.070Z,94842.63
2022-11-10T04:12:03.694Z,94852.97
2022-11-10T04:15:07.465Z,94857.16
2022-11-10T04:17:52.484Z,94858.50
2022-11-10T04:20:37.369Z,94853.28
2022-11-10T04:23:49.756Z,94850.69
2022-11-10T04:26:37.443Z,94856.97
2022-11-10T04:29:22.423Z,94868.66
2022-11-10T04:32:07.412Z,94864.75
2022-11-10T04:34:52.401Z,94871.03
2022-11-10T04:37:37.445Z,94871.28
2022-11-10T04:40:22.397Z,94875.97
2022-11-10T04:43:07.309Z,94871.81
2022-11-10T04:45:52.374Z,94874.41
2022-11-10T04:48:37.627Z,94874.41
2022-11-10T04:51:25.496Z,94879.13
2022-11-10T04:54:11.688Z,94883.31
2022-11-10T04:56:56.621Z,94890.06
2022-11-10T04:59:41.486Z,94902.59
2022-11-10T05:02:26.364Z,94905.47
2022-11-10T05:05:11.715Z,94909.38
2022-11-10T05:07:57.138Z,94910.41
2022-11-10T05:10:41.939Z,94920.59
2022-11-10T05:13:27.032Z,94915.13
2022-11-10T05:16:12.749Z,94909.94
2022-11-10T05:18:58.229Z,94920.09
2022-11-10T05:21:43.428Z,94922.97
2022-11-10T05:24:28.218Z,94918.28
2022-11-10T05:27:13.138Z,94920.34
2022-11-10T05:29:57.935Z,94912.06
2022-11-10T05:32:42.800Z,94929.22
2022-11-10T05:35:27.553Z,94943.78
2022-11-10T05:38:12.461Z,94955.72
2022-11-10T05:40:57.365Z,94964.59
2022-11-10T05:43:42.618Z,94969.28
2022-11-10T05:46:27.690Z,94979.66
2022-11-10T05:49:12.351Z,94970.56
2022-11-10T05:51:57.158Z,94979.66
2022-11-10T05:54:42.225Z,94982.78
2022-11-10T05:57:27.311Z,94977.31
2022-11-10T06:00:14.191Z,94972.38
2022-11-10T06:03:20.093Z,94968.75
2022-11-10T06:06:05.826Z,94982.53
2022-11-10T06:08:51.951Z,94987.44
2022-11-10T06:11:36.713Z,94999.13
2022-11-10T06:14:21.756Z,94992.13
2022-11-10T06:17:07.270Z,95006.41
2022-11-10T06:19:52.695Z,95008.50
2022-11-10T06:22:37.505Z,95007.19
2022-11-10T06:25:22.308Z,95014.44
2022-11-10T06:28:08.516Z,95018.63
2022-11-10T06:30:56.810Z,95029.81
2022-11-10T06:33:42.806Z,95028.50
2022-11-10T06:36:27.935Z,95029.03
2022-11-10T06:39:12.808Z,95040.44
2022-11-10T06:41:57.949Z,95022.47
2022-11-10T06:44:42.914Z,95054.50
2022-11-10T06:47:28.308Z,95064.38
2022-11-10T06:50:13.402Z,95066.97
2022-11-10T06:52:59.921Z,95069.06
2022-11-10T06:55:44.831Z,95074.78
2022-11-10T06:58:29.569Z,95083.09
2022-11-10T07:01:17.624Z,95092.19
2022-11-10T07:04:19.236Z,95094.53
2022-11-10T07:07:04.822Z,95111.19
2022-11-10T07:09:49.730Z,95107.81
2022-11-10T07:12:34.601Z,95120.53
2022-11-10T07:15:19.350Z,95129.41
2022-11-10T07:18:04.986Z,95108.56
2022-11-10T07:20:50.065Z,95130.44
2022-11-10T07:23:35.065Z,95146.56
2022-11-10T07:26:19.957Z,95149.19
2022-11-10T07:29:04.865Z,95145.53
2022-11-10T07:31:49.759Z,95158.81
2022-11-10T07:34:35.012Z,95156.22
2022-11-10T07:37:19.908Z,95161.41
2022-11-10T07:40:05.663Z,95171.81
2022-11-10T07:42:50.582Z,95174.41
2022-11-10T07:45:35.483Z,95180.16
2022-11-10T07:48:21.069Z,95174.19
2022-11-10T07:51:06.200Z,95174.44
2022-11-10T07:53:51.311Z,95186.69
2022-11-10T07:56:36.085Z,95194.25
2022-11-10T07:59:20.895Z,95190.06
2022-11-10T08:02:06.512Z,95188.75
2022-11-10T08:04:52.046Z,95190.06
2022-11-10T08:07:37.112Z,95205.94
2022-11-10T08:10:22.250Z,95214.06
2022-11-10T08:13:09.177Z,95207.03
2022-11-10T08:15:54.382Z,95212.75
2022-11-10T08:18:39.124Z,95209.63
2022-11-10T08:21:24.006Z,95213.78
2022-11-10T08:24:09.087Z,95219.75
2022-11-10T08:26:54.206Z,95219.47
2022-11-10T08:29:39.012Z,95235.59
2022-11-10T08:32:23.878Z,95240.81
2022-11-10T08:35:08.698Z,95240.28
2022-11-10T08:37:54.008Z,95241.59
2022-11-10T08:40:39.989Z,95233.00
2022-11-10T08:43:25.492Z,95240.03
2022-11-10T08:46:10.608Z,95245.00
2022-11-10T08:48:55.375Z,95255.97
2022-11-10T08:51:40.208Z,95251.81
2022-11-10T08:54:24.956Z,95254.66
2022-11-10T08:57:09.820Z,95260.69
2022-11-10T08:59:54.655Z,95263.50
2022-11-10T09:02:39.519Z,95260.94
2022-11-10T09:05:24.372Z,95280.97
2022-11-10T09:08:09.885Z,95272.09
2022-11-10T09:10:54.708Z,95283.56
2022-11-10T09:13:39.468Z,95287.19
2022-11-10T09:16:24.528Z,95282.78
2022-11-10T09:19:09.910Z,95279.38
2022-11-10T09:21:55.117Z,95263.22
2022-11-10T09:24:40.166Z,95277.81
2022-11-10T09:27:24.978Z,95282.50
2022-11-10T09:30:16.174Z,95277.28
2022-11-10T09:33:02.537Z,95287.72
2022-11-10T09:35:47.232Z,95283.53
2022-11-10T09:38:32.048Z,95288.69
2022-11-10T09:41:17.642Z,95292.75
2022-11-10T09:44:36.585Z,95301.50
2022-11-10T09:47:56.167Z,95298.00
2022-11-10T09:50:47.555Z,95295.94
2022-11-10T09:53:38.704Z,95312.69
2022-11-10T09:56:35.334Z,95317.63
2022-11-10T09:59:26.469Z,95325.22
2022-11-10T10:02:33.575Z,95334.19
2022-11-10T10:05:40.223Z,95323.47
2022-11-10T10:08:34.378Z,95331.50
2022-11-10T10:11:29.991Z,95341.97
2022-11-10T10:14:31.285Z,95342.91
2022-11-10T10:17:27.334Z,95346.25
2022-11-10T10:20:50.862Z,95351.75
2022-11-10T10:24:08.512Z,95344.28
2022-11-10T10:26:54.185Z,95351.84
2022-11-10T10:29:48.063Z,95360.47
2022-11-10T10:32:32.971Z,95360.84
2022-11-10T10:35:18.673Z,95363.75
2022-11-10T10:38:09.679Z,95373.00
2022-11-10T10:41:00.327Z,95362.22
2022-11-10T10:43:48.811Z,95356.72
2022-11-10T10:46:48.294Z,95358.47
2022-11-10T10:49:39.103Z,95362.47
2022-11-10T10:52:25.337Z,95363.28
2022-11-10T10:55:12.791Z,95377.06
2022-11-10T10:58:18.625Z,95380.03
2022-11-10T11:01:19.412Z,95373.44
2022-11-10T11:04:26.290Z,95366.31
2022-11-10T11:07:24.135Z,95367.47
2022-11-10T11:10:28.226Z,95360.56
2022-11-10T11:13:15.018Z,95371.19
2022-11-10T11:16:07.653Z,95359.94
2022-11-10T11:18:52.746Z,95353.81
2022-11-10T11:22:00.649Z,95362.94
2022-11-10T11:24:54.218Z,95361.72
2022-11-10T11:28:17.195Z,95350.44
2022-11-10T11:31:21.438Z,95355.44
2022-11-10T11:34:40.004Z,95355.63
2022-11-10T11:37:47.219Z,95353.69
2022-11-10T11:41:07.557Z,95350.56
2022-11-10T11:44:10.215Z,95349.28
2022-11-10T11:47:32.899Z,95354.00
2022-11-10T11:50:29.313Z,95350.97
2022-11-10T11:53:45.534Z,95348.66
2022-11-10T11:56:39.425Z,95331.41
2022-11-10T11:59:46.424Z,95340.34
2022-11-10T12:02:55.202Z,95341.47
2022-11-10T12:05:57.139Z,95335.91
2022-11-10T12:09:05.985Z,95344.00
2022-11-10T12:12:14.784Z,95336.09
2022-11-10T12:15:11.903Z,95341.56
2022-11-10T12:17:56.721Z,95332.47
2022-11-10T12:21:22.029Z,95328.59
2022-11-10T12:24:25.862Z,95328.63
2022-11-10T12:27:18.231Z,95317.09
2022-11-10T12:30:11.073Z,95330.16
2022-11-10T12:33:11.872Z,95332.75
2022-11-10T12:35:59.088Z,95331.16
2022-11-10T12:39:08.638Z,95326.53
2022-11-10T12:41:59.638Z,95317.72
2022-11-10T12:45:02.185Z,95313.50
2022-11-10T12:47:48.353Z,95320.72
2022-11-10T12:50:58.293Z,95317.66
2022-11-10T12:53:44.099Z,95322.44
2022-11-10T12:56:37.604Z,95328.09
2022-11-10T12:59:37.543Z,95327.03
2022-11-10T13:02:26.008Z,95319.84
2022-11-10T13:05:14.207Z,95316.78
2022-11-10T13:08:43.718Z,95317.78
2022-11-10T13:11:32.875Z,95316.88
2022-11-10T13:14:28.285Z,95319.94
2022-11-10T13:17:28.661Z,95330.63
2022-11-10T13:20:41.614Z,95333.78
2022-11-10T13:23:31.235Z,95333.47
2022-11-10T13:26:47.407Z,95322.53
2022-11-10T13:29:47.408Z,95334.69
2022-11-10T13:32:34.442Z,95339.13
2022-11-10T13:35:39.664Z,95342.47
2022-11-10T13:38:39.857Z,95339.06
2022-11-10T13:41:26.343Z,95336.03
2022-11-10T13:44:28.098Z,95350.50
2022-11-10T13:47:37.850Z,95349.06
2022-11-10T13:50:28.975Z,95345.69
2022-11-10T13:53:30.194Z,95355.25
2022-11-10T13:56:32.999Z,95351.81
2022-11-10T13:59:20.516Z,95346.16
2022-11-10T14:02:33.792Z,95342.31
2022-11-10T14:05:41.931Z,95341.50
2022-11-10T14:08:30.961Z,95349.06
2022-11-10T14:11:20.974Z,95345.19
2022-11-10T14:14:18.632Z,95341.94
2022-11-10T14:17:04.553Z,95351.97
2022-11-10T14:19:49.635Z,95348.22
2022-11-10T14:22:42.932Z,95344.69
2022-11-10T14:25:36.276Z,95357.38
2022-11-10T14:28:37.476Z,95358.00
2022-11-10T14:31:25.454Z,95362.19
2022-11-10T14:34:16.147Z,95363.16
2022-11-10T14:37:03.245Z,95364.78
2022-11-10T14:39:50.801Z,95371.06
2022-11-10T14:42:36.045Z,95375.41
2022-11-10T14:45:26.871Z,95367.16
2022-11-10T14:48:20.862Z,95375.69
2022-11-10T14:51:12.871Z,95373.84
2022-11-10T14:53:58.208Z,95365.50
2022-11-10T14:56:43.655Z,95371.59
2022-11-10T14:59:28.710Z,95369.75
2022-11-10T15:02:18.560Z,95373.78
2022-11-10T15:05:05.355Z,95375.88
2022-11-10T15:07:56.276Z,95383.19
2022-11-10T15:10:46.102Z,95393.22
2022-11-10T15:13:34.154Z,95392.25
2022-11-10T15:16:26.837Z,95394.84
2022-11-10T15:19:37.974Z,95404.78
2022-11-10T15:22:31.190Z,95407.13
2022-11-10T15:25:19.157Z,95406.84
2022-11-10T15:28:22.927Z,95405.19
2022-11-10T15:31:11.784Z,95413.88
2022-11-10T15:33:59.464Z,95411.09
2022-11-10T15:36:44.516Z,95408.97
2022-11-10T15:39:30.097Z,95420.34
2022-11-10T15:42:18.429Z,95420.88
2022-11-10T15:45:03.667Z,95426.66
2022-11-10T15:47:48.875Z,95422.63
2022-11-10T15:50:33.902Z,95424.81
2022-11-10T15:53:27.857Z,95430.66
2022-11-10T15:56:17.038Z,95435.75
2022-11-10T15:59:02.810Z,95437.38
2022-11-10T16:01:48.159Z,95451.22
2022-11-10T16:04:32.957Z,95455.31
2022-11-10T16:07:18.202Z,95458.06
2022-11-10T16:10:04.383Z,95467.34
2022-11-10T16:12:49.124Z,95474.19
2022-11-10T16:15:34.416Z,95471.91
2022-11-10T16:18:22.714Z,95476.91
2022-11-10T16:21:12.775Z,95476.94
2022-11-10T16:23:57.603Z,95471.22
2022-11-10T16:26:42.448Z,95471.75
2022-11-10T16:29:27.424Z,95482.44
2022-11-10T16:32:12.351Z,95495.78
2022-11-10T16:34:57.523Z,95498.13
2022-11-10T16:37:43.222Z,95492.63
2022-11-10T16:40:28.351Z,95500.97
2022-11-10T16:43:17.240Z,95498.88
2022-11-10T16:46:06.481Z,95495.72
2022-11-10T16:48:54.765Z,95499.09
2022-11-10T16:51:47.262Z,95501.94
2022-11-10T16:54:33.634Z,95507.66
2022-11-10T16:57:20.408Z,95510.25
2022-11-10T17:00:05.836Z,95518.03
2022-11-10T17:03:00.656Z,95514.88
2022-11-10T17:05:45.796Z,95523.94
2022-11-10T17:08:33.895Z,95528.34
2022-11-10T17:11:19.200Z,95527.53
2022-11-10T17:14:04.400Z,95536.66
2022-11-10T17:16:49.302Z,95535.59
2022-11-10T17:19:34.392Z,95541.31
2022-11-10T17:22:21.568Z,95542.31
2022-11-10T17:25:13.047Z,95548.97
2022-11-10T17:27:58.146Z,95545.53
2022-11-10T17:30:42.987Z,95551.41
2022-11-10T17:33:27.824Z,95549.28
2022-11-10T17:36:17.932Z,95556.50
2022-11-10T17:39:03.290Z,95553.56
2022-11-10T17:41:48.907Z,95553.25
2022-11-10T17:44:33.989Z,95559.38
2022-11-10T17:47:19.016Z,95556.13
2022-11-10T17:50:04.207Z,95553.75
2022-11-10T17:52:49.952Z,95545.41
2022-11-10T17:55:36.830Z,95546.19
2022-11-10T17:58:22.043Z,95543.59
2022-11-10T18:01:16.504Z,95539.72
2022-11-10T18:04:01.459Z,95550.66
2022-11-10T18:06:46.256Z,95551.44
2022-11-10T18:09:31.032Z,95565.47
2022-11-10T18:12:16.003Z,95557.91
2022-11-10T18:15:00.853Z,95563.38
2022-11-10T18:17:45.863Z,95559.13
2022-11-10T18:20:30.641Z,95568.94
2022-11-10T18:23:15.508Z,95566.84
2022-11-10T18:26:06.100Z,95569.44
2022-11-10T18:28:51.133Z,95574.06
2022-11-10T18:31:36.046Z,95567.28
2022-11-10T18:34:20.879Z,95580.53
2022-11-10T18:37:05.737Z,95568.28
2022-11-10T18:39:50.684Z,95569.31
2022-11-10T18:42:36.091Z,95572.41
2022-11-10T18:45:20.852Z,95567.44
2022-11-10T18:48:05.960Z,95566.13
2022-11-10T18:50:50.766Z,95571.06
2022-11-10T18:53:38.215Z,95569.03
2022-11-10T18:56:23.772Z,95575.28
2022-11-10T18:59:08.667Z,95570.91
2022-11-10T19:01:53.801Z,95586.47
2022-11-10T19:04:39.013Z,95558.72
2022-11-10T19:07:23.994Z,95585.91
2022-11-10T19:10:08.933Z,95580.34
2022-11-10T19:12:53.866Z,95574.47
2022-11-10T19:15:41.812Z,95588.34
2022-11-10T19:18:29.882Z,95595.28
2022-11-10T19:21:17.615Z,95597.03
2022-11-10T19:24:02.751Z,95591.41
2022-11-10T19:26:51.705Z,95591.72
2022-11-10T19:29:36.832Z,95595.03
2022-11-10T19:32:24.789Z,95593.59
2022-11-10T19:35:10.993Z,95593.84
2022-11-10T19:37:56.084Z,95593.31
2022-11-10T19:40:42.460Z,95605.25
2022-11-10T19:43:29.634Z,95601.31
2022-11-10T19:46:17.683Z,95597.47
2022-11-10T19:49:04.080Z,95602.44
2022-11-10T19:51:50.429Z,95596.19
2022-11-10T19:54:36.357Z,95592.66
2022-11-10T19:57:23.076Z,95595.56
2022-11-10T20:00:08.814Z,95596.38
2022-11-10T20:02:53.962Z,95600.97
2022-11-10T20:05:39.848Z,95596.75
2022-11-10T20:08:24.917Z,95599.84
2022-11-10T20:11:13.706Z,95608.56
2022-11-10T20:14:00.568Z,95611.16
2022-11-10T20:16:45.516Z,95608.56
2022-11-10T20:19:30.390Z,95610.91
2022-11-10T20:22:15.479Z,95617.34
2022-11-10T20:25:00.497Z,95620.97
2022-11-10T20:27:45.816Z,95625.59
2022-11-10T20:30:31.927Z,95633.38
2022-11-10T20:33:16.634Z,95629.44
2022-11-10T20:36:15.986Z,95639.59
2022-11-10T20:39:04.021Z,95639.03
2022-11-10T20:41:50.849Z,95639.59
2022-11-10T20:44:36.320Z,95631.81
2022-11-10T20:47:21.226Z,95626.78
2022-11-10T20:50:11.480Z,95638.34
2022-11-10T20:52:59.500Z,95636.75
2022-11-10T20:55:53.465Z,95635.09
2022-11-10T20:58:39.875Z,95643.75
2022-11-10T21:01:25.431Z,95656.09
2022-11-10T21:04:10.939Z,95658.50
2022-11-10T21:06:56.121Z,95654.00
2022-11-10T21:09:41.266Z,95649.53
2022-11-10T21:12:45.002Z,95653.91
2022-11-10T21:15:30.030Z,95657.31
2022-11-10T21:18:14.728Z,95643.56
2022-11-10T21:20:59.629Z,95650.31
2022-11-10T21:23:44.496Z,95651.88
2022-11-10T21:26:30.913Z,95652.34
2022-11-10T21:29:15.975Z,95644.47
2022-11-10T21:32:01.054Z,95638.75
2022-11-10T21:34:47.177Z,95639.28
2022-11-10T21:37:32.352Z,95640.88
2022-11-10T21:40:17.422Z,95637.75
2022-11-10T21:43:02.585Z,95637.41
2022-11-10T21:45:47.447Z,95634.47
2022-11-10T21:48:33.241Z,95633.47
2022-11-10T21:51:19.823Z,95633.47
2022-11-10T21:54:04.871Z,95631.09
2022-11-10T21:56:50.140Z,95630.56
2022-11-10T21:59:35.098Z,95619.66
2022-11-10T22:02:20.300Z,95607.16
2022-11-10T22:05:05.737Z,95616.03
2022-11-10T22:07:50.445Z,95616.34
2022-11-10T22:10:54.044Z,95624.19
2022-11-10T22:13:57.989Z,95624.00
2022-11-10T22:17:06.123Z,95633.47
2022-11-10T22:19:51.196Z,95630.13
2022-11-10T22:22:36.072Z,95629.50
2022-11-10T22:25:21.063Z,95628.72
2022-11-10T22:28:06.165Z,95618.34
2022-11-10T22:30:51.296Z,95628.94
2022-11-10T22:33:38.091Z,95628.63
2022-11-10T22:36:22.868Z,95628.84
2022-11-10T22:39:07.935Z,95627.94
2022-11-10T22:42:11.961Z,95623.47
2022-11-10T22:44:57.764Z,95623.94
2022-11-10T22:48:06.043Z,95624.84
2022-11-10T22:50:55.170Z,95621.69
2022-11-10T22:53:40.095Z,95618.56
2022-11-10T22:56:25.558Z,95613.84
2022-11-10T22:59:11.592Z,95615.63
2022-11-10T23:01:56.543Z,95615.88
2022-11-10T23:04:41.497Z,95615.09
2022-11-10T23:07:26.249Z,95620.25
2022-11-10T23:10:11.080Z,95623.88
2022-11-10T23:12:56.891Z,95624.66
2022-11-10T23:15:41.987Z,95629.28
2022-11-10T23:18:26.802Z,95625.09
2022-11-10T23:21:14.360Z,95630.75
2022-11-10T23:23:59.586Z,95631.06
2022-11-10T23:26:44.486Z,95632.31
2022-11-10T23:29:29.558Z,95630.66
2022-11-10T23:32:14.393Z,95630.53
2022-11-10T23:34:59.249Z,95636.16
2022-11-10T23:37:44.118Z,95631.22
2022-11-10T23:40:28.961Z,95639.75
2022-11-10T23:43:13.808Z,95631.00
2022-11-10T23:46:07.648Z,95642.13
2022-11-10T23:48:52.898Z,95642.47
2022-11-10T23:51:37.650Z,95638.84
2022-11-10T23:54:22.419Z,95639.44
2022-11-10T23:57:07.404Z,95638.41
2022-11-10T23:59:52.600Z,95643.47
